Time;durP1;ratioP1;P1;durP2;ratioP2;P2;SDS_P1;SDS_P2;PMS_P1;PMS_P2;Temp;Humidity;BMP_temperature;BMP_pressure;BME280_temperature;BME280_humidity;BME280_pressure;Samples;Min_cycle;Max_cycle;Signal;HPM_P1;HPM_P2
2023/01/03 00:01:28;;;;;;;17.80;9.07;;;;;;;3.21;100.00;98888.11;1712980;84;21034;-79
2023/01/03 00:03:57;;;;;;;19.10;9.13;;;;;;;3.26;100.00;98885.47;1713126;84;21003;-80
2023/01/03 00:06:34;;;;;;;17.10;9.87;;;;;;;3.25;100.00;98873.13;1712874;84;20991;-79
2023/01/03 00:09:04;;;;;;;16.67;9.30;;;;;;;3.23;100.00;98872.77;1712852;84;21086;-79
2023/01/03 00:14:24;;;;;;;19.67;10.50;;;;;;;3.19;100.00;98860.72;1697402;83;21008;-79
2023/01/03 00:16:55;;;;;;;18.53;9.90;;;;;;;3.18;100.00;98854.19;1655713;86;21073;-79
2023/01/03 00:19:24;;;;;;;17.53;9.87;;;;;;;3.14;100.00;98853.65;1669968;86;21084;-80
2023/01/03 00:21:51;;;;;;;16.97;9.17;;;;;;;3.10;100.00;98856.77;1669968;85;21040;-78
2023/01/03 00:24:17;;;;;;;16.60;8.90;;;;;;;3.08;100.00;98848.07;1669998;85;21071;-79
2023/01/03 00:26:46;;;;;;;17.73;9.27;;;;;;;3.07;100.00;98841.91;1669922;85;21048;-80
2023/01/03 00:29:13;;;;;;;18.13;9.67;;;;;;;3.08;100.00;98840.06;1669691;86;21049;-79
2023/01/03 00:31:40;;;;;;;17.27;9.43;;;;;;;3.07;100.00;98833.89;1669807;86;21083;-80
2023/01/03 00:34:08;;;;;;;20.77;10.27;;;;;;;3.08;100.00;98832.05;1669873;86;21058;-79
2023/01/03 00:36:35;;;;;;;21.00;10.90;;;;;;;3.10;100.00;98818.91;1669942;85;21037;-79
2023/01/03 00:39:02;;;;;;;21.20;10.93;;;;;;;3.13;100.00;98809.22;1671434;86;20984;-79
2023/01/03 00:41:30;;;;;;;19.13;10.27;;;;;;;3.16;100.00;98803.58;1670539;86;21024;-78
2023/01/03 00:43:58;;;;;;;19.53;10.37;;;;;;;3.18;100.00;98775.38;1670128;86;21087;-79
2023/01/03 00:46:26;;;;;;;21.03;11.27;;;;;;;3.20;100.00;98770.72;1670100;85;21096;-81
2023/01/03 00:48:53;;;;;;;22.20;11.80;;;;;;;3.20;100.00;98763.53;1669903;85;21054;-80
2023/01/03 00:51:23;;;;;;;22.07;11.67;;;;;;;3.19;100.00;98762.38;1670174;85;21068;-80
2023/01/03 00:53:53;;;;;;;21.30;11.03;;;;;;;3.18;100.00;98750.84;1670210;85;21100;-80
2023/01/03 00:56:24;;;;;;;18.30;10.17;;;;;;;3.18;100.00;98742.82;1670162;85;21092;-79
2023/01/03 00:58:51;;;;;;;20.60;11.73;;;;;;;3.20;100.00;98738.66;1670269;85;21028;-80
2023/01/03 01:01:24;;;;;;;21.67;11.80;;;;;;;3.20;100.00;98728.81;1670067;86;21013;-80
2023/01/03 01:03:58;;;;;;;19.67;10.65;;;;;;;3.18;100.00;98717.44;1670387;86;21007;-80
2023/01/03 01:06:29;;;;;;;18.90;10.00;;;;;;;3.21;100.00;98718.98;1686634;85;21059;-78
2023/01/03 01:08:58;;;;;;;19.73;10.87;;;;;;;3.19;100.00;98713.80;1655826;87;21052;-79
2023/01/03 01:11:26;;;;;;;18.20;9.47;;;;;;;3.19;100.00;98700.94;1625852;87;21066;-81
2023/01/03 01:13:53;;;;;;;19.10;9.93;;;;;;;3.21;100.00;98693.61;1630609;86;21058;-81
2023/01/03 01:16:24;;;;;;;19.93;10.07;;;;;;;3.22;100.00;98694.79;1623631;88;21078;-81
2023/01/03 01:18:52;;;;;;;17.60;9.10;;;;;;;3.19;100.00;98684.91;1623382;88;21046;-80
2023/01/03 01:21:26;;;;;;;18.33;10.90;;;;;;;3.18;100.00;98677.38;1623324;88;21034;-80
2023/01/03 01:23:54;;;;;;;18.03;9.80;;;;;;;3.18;100.00;98676.05;1623484;87;21510;-81
2023/01/03 01:26:23;;;;;;;17.50;9.33;;;;;;;3.19;100.00;98667.55;1623355;88;21054;-81
2023/01/03 01:28:51;;;;;;;20.40;10.70;;;;;;;3.18;100.00;98660.02;1623590;88;21042;-80
2023/01/03 01:31:21;;;;;;;18.67;9.87;;;;;;;3.18;100.00;98654.67;1623245;87;21132;-80
2023/01/03 01:33:47;;;;;;;19.33;10.67;;;;;;;3.18;100.00;98642.66;1623344;88;21124;-82
2023/01/03 01:36:22;;;;;;;17.63;9.87;;;;;;;3.17;100.00;98636.98;1623697;88;21037;-81
2023/01/03 01:38:59;;;;;;;15.90;8.33;;;;;;;3.15;100.00;98634.12;1622686;87;21070;-81
2023/01/03 01:44:46;;;;;;;17.27;9.10;;;;;;;3.12;100.00;98619.77;1623435;88;21063;-81
2023/01/03 01:47:36;;;;;;;17.67;8.77;;;;;;;3.12;100.00;98612.58;1623336;88;21033;-82
2023/01/03 01:50:32;;;;;;;17.33;8.97;;;;;;;3.10;100.00;98595.02;1623561;87;21077;-79
2023/01/03 01:53:21;;;;;;;16.37;9.00;;;;;;;3.09;100.00;98598.20;1623605;87;21053;-81
2023/01/03 01:55:56;;;;;;;18.33;9.43;;;;;;;3.10;100.00;98589.68;1619628;88;21065;-81
2023/01/03 01:58:29;;;;;;;16.80;9.03;;;;;;;3.06;100.00;98583.82;1623602;88;21082;-80
2023/01/03 02:00:57;;;;;;;18.97;10.10;;;;;;;3.06;100.00;98582.48;1622668;88;21124;-81
2023/01/03 02:03:24;;;;;;;18.13;9.67;;;;;;;3.03;100.00;98576.98;1623502;88;21074;-81
2023/01/03 02:05:53;;;;;;;20.60;9.27;;;;;;;3.03;100.00;98584.16;1623252;88;21034;-81
2023/01/03 02:08:20;;;;;;;17.63;9.03;;;;;;;3.03;100.00;98572.97;1623365;88;21082;-81
2023/01/03 02:11:02;;;;;;;16.60;9.13;;;;;;;3.06;100.00;98569.13;1623505;88;21089;-81
2023/01/03 02:13:58;;;;;;;18.95;9.50;;;;;;;3.07;100.00;98554.80;1638981;84;21071;-82
2023/01/03 02:16:47;;;;;;;17.37;8.83;;;;;;;3.10;100.00;98540.27;1662617;86;21099;-81
2023/01/03 02:19:36;;;;;;;17.50;8.80;;;;;;;3.10;100.00;98529.11;1662497;86;21084;-81
2023/01/03 02:22:41;;;;;;;21.10;10.50;;;;;;;3.10;100.00;98529.59;1663079;85;21036;-81
2023/01/03 02:25:52;;;;;;;17.20;8.90;;;;;;;3.10;100.00;98518.43;1601024;90;21523;-81
2023/01/03 02:28:52;;;;;;;18.63;9.67;;;;;;;3.11;100.00;98508.58;1627537;87;21057;-82
2023/01/03 02:31:44;;;;;;;17.90;8.70;;;;;;;3.09;100.00;98501.23;1623453;88;21054;-81
2023/01/03 02:34:24;;;;;;;18.63;8.97;;;;;;;3.05;100.00;98491.37;1623613;88;21062;-81
2023/01/03 02:37:31;;;;;;;17.17;9.13;;;;;;;3.04;100.00;98485.67;1622948;88;21077;-81
2023/01/03 02:40:29;;;;;;;18.43;9.53;;;;;;;3.03;100.00;98485.36;1623507;88;21529;-82
2023/01/03 02:43:19;;;;;;;18.53;9.80;;;;;;;3.01;100.00;98478.84;1623513;88;21501;-81
2023/01/03 02:46:32;;;;;;;16.97;8.83;;;;;;;3.01;100.00;98469.97;1622685;88;21026;-80
2023/01/03 02:49:23;;;;;;;17.73;8.83;;;;;;;3.02;100.00;98463.64;1623213;88;21092;-80
2023/01/03 02:51:55;;;;;;;18.77;9.00;;;;;;;3.03;100.00;98451.97;1623247;88;21017;-82
2023/01/03 02:54:27;;;;;;;14.50;7.57;;;;;;;3.03;100.00;98440.78;1623301;88;21046;-82
2023/01/03 02:57:02;;;;;;;18.13;9.30;;;;;;;3.06;100.00;98452.14;1624437;88;20994;-80
2023/01/03 02:59:49;;;;;;;14.90;8.13;;;;;;;3.04;100.00;98441.11;1623099;88;21519;-81
2023/01/03 03:02:16;;;;;;;16.80;8.37;;;;;;;3.04;100.00;98429.09;1623440;88;21030;-82
2023/01/03 03:04:44;;;;;;;17.03;8.47;;;;;;;3.07;100.00;98429.28;1623267;87;21101;-81
2023/01/03 03:07:24;;;;;;;18.97;9.63;;;;;;;3.07;100.00;98431.95;1623277;88;21014;-81
2023/01/03 03:15:27;;;;;;;17.73;8.80;;;;;;;3.11;100.00;98405.24;1655292;87;21112;-83
2023/01/03 03:17:59;;;;;;;16.27;8.13;;;;;;;3.10;100.00;98392.05;1655403;87;21039;-81
2023/01/03 03:26:02;;;;;;;18.47;9.30;;;;;;;3.13;100.00;98362.35;1657019;87;21055;-81
2023/01/03 03:28:34;;;;;;;16.97;8.43;;;;;;;3.14;100.00;98358.70;1655457;86;21041;-80
2023/01/03 03:31:23;;;;;;;16.87;8.43;;;;;;;3.14;100.00;98358.19;1655889;87;21124;-82
2023/01/03 03:33:59;;;;;;;16.93;8.67;;;;;;;3.13;100.00;98351.16;1655691;86;21033;-82
2023/01/03 03:36:34;;;;;;;19.17;9.17;;;;;;;3.12;100.00;98346.02;1655623;87;21032;-82
2023/01/03 03:39:01;;;;;;;17.13;8.27;;;;;;;3.12;100.00;98338.00;1655457;87;21011;-82
2023/01/03 03:47:46;;;;;;;17.27;8.50;;;;;;;3.10;100.00;98323.95;1655685;87;21043;-81
2023/01/03 03:50:47;;;;;;;18.67;8.60;;;;;;;3.11;100.00;98308.27;1655698;86;21072;-81
2023/01/03 03:53:15;;;;;;;17.97;8.70;;;;;;;3.13;100.00;98302.27;1655693;87;21064;-81
2023/01/03 03:55:55;;;;;;;18.30;9.07;;;;;;;3.14;100.00;98287.41;1655623;87;21005;-81
2023/01/03 03:58:29;;;;;;;17.93;8.37;;;;;;;3.14;100.00;98291.41;1654850;87;21043;-82
2023/01/03 04:00:57;;;;;;;16.23;7.93;;;;;;;3.16;100.00;98279.23;1637284;86;21100;-82
2023/01/03 04:03:24;;;;;;;18.70;8.53;;;;;;;3.19;100.00;98266.38;1655533;87;21060;-80
2023/01/03 04:05:56;;;;;;;15.90;8.43;;;;;;;3.21;100.00;98267.55;1635053;87;21076;-81
2023/01/03 04:08:23;;;;;;;17.10;8.68;;;;;;;3.19;100.00;98262.38;1655682;87;21076;-81
2023/01/03 04:10:50;;;;;;;18.17;9.30;;;;;;;3.19;100.00;98254.87;1655194;87;21483;-80
2023/01/03 04:13:17;;;;;;;17.47;8.23;;;;;;;3.18;100.00;98241.17;1634501;87;21119;-82
2023/01/03 04:15:44;;;;;;;16.97;8.47;;;;;;;3.21;100.00;98237.66;1603152;88;21061;-82
2023/01/03 04:18:11;;;;;;;15.77;8.27;;;;;;;3.22;100.00;98228.66;1623644;88;21069;-81
2023/01/03 04:20:38;;;;;;;17.33;9.00;;;;;;;3.23;100.00;98228.15;1623475;88;21081;-82
2023/01/03 04:23:05;;;;;;;18.80;8.53;;;;;;;3.23;100.00;98218.28;1623548;88;21018;-81
2023/01/03 04:25:33;;;;;;;18.97;8.87;;;;;;;3.24;100.00;98215.14;1623792;88;21101;-81
2023/01/03 04:28:00;;;;;;;16.20;8.83;;;;;;;3.25;100.00;98204.77;1623753;88;21029;-79
2023/01/03 04:30:27;;;;;;;16.03;8.77;;;;;;;3.27;100.00;98197.92;1623534;88;21115;-81
2023/01/03 04:32:53;;;;;;;19.33;9.90;;;;;;;3.29;100.00;98192.73;1623473;88;21018;-82
2023/01/03 04:35:20;;;;;;;18.60;9.63;;;;;;;3.28;100.00;98179.57;1623782;88;21082;-81
2023/01/03 04:37:48;;;;;;;16.00;8.17;;;;;;;3.27;100.00;98172.55;1623410;87;21077;-81
2023/01/03 04:40:15;;;;;;;16.77;8.73;;;;;;;3.28;100.00;98167.55;1603186;87;21094;-82
2023/01/03 04:45:27;;;;;;;16.63;8.07;;;;;;;3.28;100.00;98154.19;1623409;87;21113;-80
2023/01/03 04:47:54;;;;;;;15.63;7.80;;;;;;;3.26;100.00;98138.33;1623502;88;21038;-82
2023/01/03 04:50:21;;;;;;;17.43;8.27;;;;;;;3.26;100.00;98141.00;1623336;88;21053;-82
2023/01/03 04:52:48;;;;;;;15.70;7.53;;;;;;;3.27;100.00;98133.81;1623513;87;21114;-81
2023/01/03 04:55:15;;;;;;;15.07;7.27;;;;;;;3.27;100.00;98128.47;1623401;88;21041;-81
2023/01/03 04:57:42;;;;;;;16.07;7.87;;;;;;;3.27;100.00;98124.47;1623533;88;21053;-82
2023/01/03 05:00:11;;;;;;;17.27;8.47;;;;;;;3.28;100.00;98126.97;1623478;88;21061;-82
2023/01/03 05:02:39;;;;;;;16.63;8.07;;;;;;;3.30;100.00;98122.80;1623597;88;21062;-82
2023/01/03 05:05:07;;;;;;;18.07;8.43;;;;;;;3.30;100.00;98120.13;1602210;88;21078;-82
2023/01/03 05:07:35;;;;;;;16.87;8.87;;;;;;;3.32;100.00;98113.59;1623530;88;21061;-82
2023/01/03 05:10:04;;;;;;;18.23;8.20;;;;;;;3.34;100.00;98104.90;1623346;87;21109;-82
2023/01/03 05:12:31;;;;;;;17.00;8.27;;;;;;;3.37;100.00;98101.06;1623560;87;21101;-80
2023/01/03 05:14:58;;;;;;;18.40;9.37;;;;;;;3.39;100.00;98083.84;1649358;85;21087;-82
2023/01/03 05:17:25;;;;;;;16.33;8.23;;;;;;;3.45;100.00;98077.48;1662857;85;21076;-82
2023/01/03 05:28:11;;;;;;;23.10;11.20;;;;;;;3.50;100.00;98039.05;1627618;88;21061;-82
2023/01/03 05:30:38;;;;;;;22.10;12.03;;;;;;;3.50;100.00;98034.52;1623451;88;21090;-82
2023/01/03 05:33:04;;;;;;;26.93;13.97;;;;;;;3.53;100.00;98030.17;1623428;87;21054;-82
2023/01/03 05:35:32;;;;;;;35.43;15.53;;;;;;;3.55;100.00;98024.15;1623186;88;21069;-82
2023/01/03 05:37:59;;;;;;;40.97;20.27;;;;;;;3.57;100.00;98018.12;1623106;88;21011;-81
2023/01/03 05:40:26;;;;;;;27.47;14.53;;;;;;;3.59;100.00;98008.11;1623282;87;21030;-80
2023/01/03 05:42:54;;;;;;;28.67;14.63;;;;;;;3.60;100.00;98020.95;1623094;87;21069;-81
2023/01/03 05:45:24;;;;;;;32.20;15.50;;;;;;;3.61;100.00;98002.56;1623551;87;21034;-80
2023/01/03 05:47:51;;;;;;;31.13;16.17;;;;;;;3.60;100.00;97997.73;1623265;88;21109;-80
2023/01/03 05:50:18;;;;;;;21.57;10.43;;;;;;;3.59;100.00;97990.73;1623592;88;21551;-81
2023/01/03 05:52:45;;;;;;;20.50;9.63;;;;;;;3.59;100.00;97980.53;1623433;88;21054;-81
2023/01/03 05:55:11;;;;;;;21.73;10.17;;;;;;;3.58;100.00;97979.70;1623551;88;21054;-80
2023/01/03 05:57:39;;;;;;;21.43;10.67;;;;;;;3.56;100.00;97968.37;1623125;88;21113;-80
2023/01/03 06:00:08;;;;;;;22.73;10.70;;;;;;;3.57;100.00;97967.86;1623622;88;20986;-81
2023/01/03 06:02:37;;;;;;;23.13;11.47;;;;;;;3.56;100.00;97959.50;1623065;88;21094;-80
2023/01/03 06:05:05;;;;;;;21.23;9.73;;;;;;;3.57;100.00;97950.48;1623437;88;21078;-80
2023/01/03 06:07:35;;;;;;;20.00;9.87;;;;;;;3.56;100.00;97946.99;1623164;88;21093;-77
2023/01/03 06:10:06;;;;;;;22.57;10.73;;;;;;;3.56;100.00;97938.97;1624379;87;21073;-79
2023/01/03 06:12:34;;;;;;;19.32;9.40;;;;;;;3.58;100.00;97930.78;1626603;84;21058;-80
2023/01/03 06:15:02;;;;;;;18.93;9.27;;;;;;;3.55;100.00;97927.94;1638288;86;21082;-80
2023/01/03 06:20:17;;;;;;;22.40;9.13;;;;;;;3.57;100.00;97920.58;1655418;86;21533;-81
2023/01/03 06:22:45;;;;;;;22.37;9.80;;;;;;;3.58;100.00;97901.39;1647729;86;21088;-81
2023/01/03 06:25:12;;;;;;;20.30;9.90;;;;;;;3.58;100.00;97908.06;1656183;86;20986;-81
2023/01/03 06:27:42;;;;;;;16.93;8.70;;;;;;;3.56;100.00;97908.23;1650804;86;21052;-80
2023/01/03 06:30:14;;;;;;;20.73;10.00;;;;;;;3.57;100.00;97892.52;1651171;86;21536;-79
2023/01/03 06:32:43;;;;;;;19.50;10.08;;;;;;;3.60;100.00;97890.01;1643776;85;21356;-80
2023/01/03 06:35:11;;;;;;;21.23;10.77;;;;;;;3.61;100.00;97885.83;1652094;86;21026;-80
2023/01/03 06:37:38;;;;;;;20.13;10.40;;;;;;;3.61;100.00;97876.95;1651056;86;21030;-79
2023/01/03 06:40:07;;;;;;;20.83;10.67;;;;;;;3.64;100.00;97878.45;1656750;86;21055;-79
2023/01/03 06:42:41;;;;;;;21.67;10.10;;;;;;;3.67;100.00;97866.07;1669996;85;21033;-81
2023/01/03 06:53:30;;;;;;;21.43;11.10;;;;;;;3.79;100.00;97842.73;1662922;85;21064;-78
2023/01/03 06:55:58;;;;;;;22.87;10.50;;;;;;;3.83;100.00;97823.66;1653695;86;20995;-79
2023/01/03 06:58:25;;;;;;;20.30;11.20;;;;;;;3.88;100.00;97817.23;1654539;86;21034;-80
2023/01/03 07:00:52;;;;;;;21.37;11.37;;;;;;;3.93;100.00;97813.02;1652945;86;21018;-75
2023/01/03 07:03:21;;;;;;;21.97;10.50;;;;;;;3.99;100.00;97797.56;1652808;86;21082;-73
2023/01/03 07:05:48;;;;;;;22.77;10.77;;;;;;;4.03;100.00;97787.84;1651313;86;21040;-75
2023/01/03 07:08:15;;;;;;;23.00;11.93;;;;;;;4.10;100.00;97786.91;1650619;85;21026;-74
2023/01/03 07:10:43;;;;;;;22.00;9.93;;;;;;;4.16;100.00;97771.96;1658207;86;21145;-76
2023/01/03 07:15:58;;;;;;;23.20;11.07;;;;;;;4.31;100.00;97736.67;1656634;86;21093;-75
2023/01/03 07:18:26;;;;;;;21.57;10.17;;;;;;;4.38;100.00;97716.17;1630009;88;21097;-81
2023/01/03 07:20:53;;;;;;;21.20;10.67;;;;;;;4.46;100.00;97705.03;1654604;86;21029;-79
2023/01/03 07:23:20;;;;;;;23.27;11.80;;;;;;;4.52;100.00;97694.41;1626325;88;21091;-78
2023/01/03 07:25:48;;;;;;;20.87;10.43;;;;;;;4.55;100.00;97676.63;1654823;86;21033;-81
2023/01/03 07:28:15;;;;;;;23.10;11.33;;;;;;;4.67;100.00;97660.05;1651858;86;21070;-80
2023/01/03 07:30:44;;;;;;;22.03;11.53;;;;;;;4.75;100.00;97656.73;1652329;87;20962;-78
2023/01/03 07:33:13;;;;;;;23.77;11.83;;;;;;;4.85;100.00;97639.02;1652441;87;21029;-79
2023/01/03 07:35:40;;;;;;;22.33;11.63;;;;;;;4.92;100.00;97629.19;1651904;86;21033;-80
2023/01/03 07:38:07;;;;;;;24.23;12.07;;;;;;;5.03;100.00;97610.42;1638787;86;21378;-78
2023/01/03 07:40:34;;;;;;;25.40;12.83;;;;;;;5.13;100.00;97589.97;1663909;85;21042;-79
2023/01/03 07:45:47;;;;;;;22.67;11.20;;;;;;;5.38;100.00;97551.46;1651506;85;21041;-80
2023/01/03 07:48:15;;;;;;;25.47;13.23;;;;;;;5.52;100.00;97529.56;1652211;85;21055;-77
2023/01/03 07:50:44;;;;;;;24.30;11.87;;;;;;;5.64;100.00;97503.02;1651438;86;21515;-76
2023/01/03 07:53:15;;;;;;;23.10;12.53;;;;;;;5.73;100.00;97487.58;1652629;86;20995;-76
2023/01/03 07:55:47;;;;;;;23.80;11.27;;;;;;;5.82;100.00;97467.58;1649103;86;21017;-77
2023/01/03 07:58:12;;;;;;;24.13;13.13;;;;;;;5.88;100.00;97451.51;1617636;88;21049;-75
2023/01/03 08:00:40;;;;;;;22.40;11.17;;;;;;;5.99;100.00;97433.20;1659067;86;21051;-76
2023/01/03 08:03:08;;;;;;;23.33;11.23;;;;;;;6.06;100.00;97406.67;1658624;86;21106;-76
2023/01/03 08:05:35;;;;;;;23.03;11.00;;;;;;;6.07;100.00;97407.48;1662803;86;20985;-72
2023/01/03 08:08:03;;;;;;;23.80;12.80;;;;;;;6.12;100.00;97386.23;1656272;86;21098;-72
2023/01/03 08:13:18;;;;;;;21.20;11.83;;;;;;;6.35;100.00;97346.88;1657857;86;21071;-74
2023/01/03 08:15:49;;;;;;;25.87;13.10;;;;;;;6.51;100.00;97305.33;1690983;82;21022;-75
2023/01/03 08:18:18;;;;;;;23.70;12.50;;;;;;;6.59;100.00;97285.49;1707150;83;21455;-75
2023/01/03 08:20:46;;;;;;;19.70;10.73;;;;;;;6.70;100.00;97258.48;1664683;85;21036;-78
2023/01/03 08:23:13;;;;;;;21.60;12.07;;;;;;;6.80;100.00;97232.81;1685248;85;21424;-76
2023/01/03 08:25:41;;;;;;;25.23;10.90;;;;;;;6.82;100.00;97213.27;1653514;86;21005;-75
2023/01/03 08:28:09;;;;;;;21.77;11.30;;;;;;;6.90;100.00;97203.30;1640395;87;21022;-77
2023/01/03 08:30:43;;;;;;;20.50;10.40;;;;;;;6.99;100.00;97183.19;1659608;86;21036;-74
2023/01/03 08:33:14;;;;;;;22.20;11.70;;;;;;;7.03;100.00;97178.52;1644353;86;21488;-74
2023/01/03 08:35:46;;;;;;;21.60;10.97;;;;;;;7.04;100.00;97173.95;1643824;86;21068;-74
2023/01/03 08:38:23;;;;;;;28.03;14.97;;;;;;;7.11;100.00;97169.35;1635235;86;21563;-73
2023/01/03 08:40:50;;;;;;;26.63;13.07;;;;;;;7.15;100.00;97181.83;1645718;86;21494;-76
2023/01/03 08:43:17;;;;;;;60.73;23.53;;;;;;;7.23;100.00;97189.63;1653568;86;21107;-75
2023/01/03 08:45:53;;;;;;;31.90;15.17;;;;;;;7.31;100.00;97208.18;1651789;86;21057;-74
2023/01/03 08:48:26;;;;;;;26.10;12.67;;;;;;;7.37;100.00;97212.66;1652443;86;21057;-73
2023/01/03 08:50:53;;;;;;;23.77;11.20;;;;;;;7.39;100.00;97240.14;1642986;86;21504;-72
2023/01/03 08:53:23;;;;;;;24.70;11.73;;;;;;;7.45;100.00;97257.25;1646896;86;21123;-74
2023/01/03 08:55:49;;;;;;;32.47;13.57;;;;;;;7.55;100.00;97274.26;1644672;86;20995;-70
2023/01/03 08:58:17;;;;;;;31.97;13.63;;;;;;;7.59;100.00;97289.72;1648072;86;20987;-73
2023/01/03 09:00:45;;;;;;;33.70;13.57;;;;;;;7.64;100.00;97327.25;1648050;86;21049;-74
2023/01/03 09:03:12;;;;;;;33.37;13.87;;;;;;;7.65;100.00;97368.72;1650109;86;21495;-74
2023/01/03 09:14:11;;;;;;;29.97;13.63;;;;;;;7.92;100.00;97486.37;1618725;88;21057;-69
2023/01/03 09:16:38;;;;;;;37.10;16.93;;;;;;;7.87;100.00;97575.52;1630912;87;21003;-70
2023/01/03 09:19:48;;;;;;;28.10;13.50;;;;;;;7.88;100.00;97637.69;1671998;85;21018;-71
2023/01/03 09:22:16;;;;;;;29.07;14.27;;;;;;;7.94;100.00;97682.07;1670966;86;20974;-71
2023/01/03 09:24:43;;;;;;;29.37;14.70;;;;;;;7.96;100.00;97723.05;1671793;86;21072;-72
2023/01/03 09:27:10;;;;;;;24.00;12.27;;;;;;;8.04;100.00;97773.15;1671251;86;20970;-70
2023/01/03 09:29:36;;;;;;;21.07;11.27;;;;;;;8.07;100.00;97827.88;1670845;86;21081;-71
2023/01/03 09:32:04;;;;;;;26.07;14.20;;;;;;;8.04;100.00;97875.92;1671274;86;21052;-69
2023/01/03 09:34:31;;;;;;;22.00;12.07;;;;;;;8.04;100.00;97927.91;1669629;86;21072;-72
2023/01/03 09:36:58;;;;;;;26.50;11.93;;;;;;;8.15;100.00;97972.22;1670824;86;20994;-70
2023/01/03 09:39:25;;;;;;;24.40;12.80;;;;;;;8.29;100.00;98006.72;1670339;86;21153;-72
2023/01/03 09:44:38;;;;;;;21.57;10.93;;;;;;;8.38;100.00;98106.98;1671179;84;21567;-71
2023/01/03 09:47:05;;;;;;;19.63;10.13;;;;;;;8.29;100.00;98148.91;1670705;86;21069;-71
2023/01/03 09:49:43;;;;;;;21.93;11.23;;;;;;;8.26;100.00;98199.64;1653600;86;20990;-69
2023/01/03 10:06:34;;;;;;;22.13;10.90;;;;;;;8.01;100.00;98371.59;1672275;86;20987;-76
2023/01/03 10:09:55;;;;;;;21.13;10.87;;;;;;;7.88;100.00;98400.55;1655420;86;21034;-76
2023/01/03 10:13:03;;;;;;;24.87;12.40;;;;;;;7.83;100.00;98419.98;1670405;86;21036;-76
2023/01/03 10:16:19;;;;;;;26.60;14.13;;;;;;;7.83;100.00;98447.41;1668714;86;21025;-77
2023/01/03 10:19:18;;;;;;;23.07;11.23;;;;;;;7.83;100.00;98460.34;1672766;84;21471;-75
2023/01/03 10:25:58;;;;;;;23.90;11.67;;;;;;;7.92;100.00;98476.68;1668202;86;21033;-73
2023/01/03 10:28:34;;;;;;;26.05;13.38;;;;;;;7.95;100.00;98454.77;1658980;86;21049;-74
2023/01/03 10:31:25;;;;;;;22.25;11.78;;;;;;;7.91;100.00;98494.36;1671723;84;21072;-78
2023/01/03 10:33:57;;;;;;;25.03;12.93;;;;;;;7.86;100.00;98516.48;1693142;83;21136;-70
2023/01/03 10:36:25;;;;;;;22.07;11.60;;;;;;;7.76;100.00;98514.09;1655704;85;21007;-70
2023/01/03 10:39:09;;;;;;;25.57;11.83;;;;;;;7.77;100.00;98524.33;1654959;86;21080;-69
2023/01/03 10:41:43;;;;;;;24.77;12.73;;;;;;;7.75;100.00;98529.90;1647993;84;21076;-72
2023/01/03 10:48:28;;;;;;;30.67;16.63;;;;;;;7.68;100.00;98550.52;1647977;86;21076;-69
2023/01/03 10:55:00;;;;;;;25.70;15.83;;;;;;;7.51;100.00;98537.81;1569681;86;21066;-76
2023/01/03 10:57:58;;;;;;;25.57;14.35;;;;;;;7.44;100.00;98533.34;1635976;88;21066;-75
2023/01/03 11:00:33;;;;;;;21.03;11.60;;;;;;;7.39;100.00;98534.75;1639970;87;21034;-76
2023/01/03 11:07:14;;;;;;;25.77;13.80;;;;;;;7.31;100.00;98542.09;1647762;86;21095;-75
2023/01/03 11:13:44;;;;;;;26.27;12.67;;;;;;;7.26;100.00;98528.36;1574750;87;21651;-75
2023/01/03 11:16:16;;;;;;;24.50;13.40;;;;;;;7.22;100.00;98501.88;1584914;87;21104;-74
2023/01/03 11:18:45;;;;;;;35.65;19.25;;;;;;;7.18;100.00;98519.38;1654066;86;21553;-73
2023/01/03 11:21:22;;;;;;;31.50;16.43;;;;;;;7.17;100.00;98526.28;1657442;86;21592;-72
2023/01/03 11:24:06;;;;;;;26.57;14.50;;;;;;;7.14;100.00;98523.99;1655837;85;21014;-74
2023/01/03 11:35:33;;;;;;;35.47;17.90;;;;;;;7.04;100.00;98492.83;1658647;86;21114;-78
2023/01/03 11:38:21;;;;;;;36.33;21.97;;;;;;;6.99;100.00;98487.20;1652756;86;21778;-76
2023/01/03 12:01:10;;;;;;;31.63;16.13;;;;;;;6.88;100.00;98447.35;1654877;86;21105;-70
2023/01/03 12:04:00;;;;;;;33.87;16.33;;;;;;;6.84;100.00;98420.02;1658879;86;21026;-70
2023/01/03 12:06:38;;;;;;;29.87;17.10;;;;;;;6.86;100.00;98413.13;1641125;86;21096;-71
2023/01/03 12:09:47;;;;;;;35.40;17.67;;;;;;;6.88;100.00;98412.42;1629866;86;21221;-69
2023/01/03 12:13:00;;;;;;;29.70;15.97;;;;;;;6.89;100.00;98418.62;1630955;86;21045;-69
2023/01/03 12:19:45;;;;;;;32.57;17.00;;;;;;;6.92;100.00;98407.50;1646057;85;21049;-70
2023/01/03 12:22:21;;;;;;;33.37;17.30;;;;;;;6.86;100.00;98383.56;1650942;85;21524;-68
2023/01/03 12:47:01;;;;;;;46.33;26.10;;;;;;;6.60;100.00;98324.45;1797399;79;20984;-74
2023/01/03 12:49:55;;;;;;;36.37;19.00;;;;;;;6.51;100.00;98329.61;1800535;79;21001;-73
2023/01/03 12:52:23;;;;;;;38.43;18.13;;;;;;;6.46;100.00;98342.27;1810243;79;21027;-73
2023/01/03 12:55:18;;;;;;;31.90;16.10;;;;;;;6.42;100.00;98344.16;1799840;79;20998;-72
2023/01/03 12:57:51;;;;;;;32.60;16.33;;;;;;;6.41;100.00;98349.19;1788249;79;20987;-75
2023/01/03 13:00:36;;;;;;;32.53;18.17;;;;;;;6.39;100.00;98343.17;1732227;82;21067;-77
2023/01/03 13:11:22;;;;;;;32.07;17.40;;;;;;;6.33;100.00;98310.38;1761917;81;21026;-77
2023/01/03 13:13:54;;;;;;;29.97;15.00;;;;;;;6.30;100.00;98307.54;1736428;81;21017;-77
2023/01/03 13:20:26;;;;;;;32.97;16.73;;;;;;;6.23;100.00;98310.16;1743332;81;20992;-78
2023/01/03 13:22:57;;;;;;;35.37;18.40;;;;;;;6.15;100.00;98298.68;1747332;82;20918;-78
2023/01/03 13:25:41;;;;;;;37.20;19.77;;;;;;;6.14;100.00;98309.08;1740285;82;20973;-78
2023/01/03 13:28:25;;;;;;;37.30;19.40;;;;;;;6.11;100.00;98317.00;1742729;82;20965;-78
2023/01/03 13:35:03;;;;;;;59.43;32.73;;;;;;;6.09;100.00;98316.33;1622808;86;21588;-78
2023/01/03 13:49:55;;;;;;;35.47;17.90;;;;;;;5.99;100.00;98262.13;1600145;88;21630;-77
2023/01/03 13:53:02;;;;;;;39.27;20.67;;;;;;;5.96;100.00;98263.84;1607385;88;21003;-75
2023/01/03 13:56:00;;;;;;;35.50;18.20;;;;;;;5.95;100.00;98262.98;1597364;88;21041;-76
2023/01/03 13:58:42;;;;;;;30.97;15.23;;;;;;;5.89;100.00;98249.77;1612551;88;21006;-76
2023/01/03 14:01:43;;;;;;;31.52;15.58;;;;;;;5.82;100.00;98246.69;1603351;88;21098;-76
2023/01/03 14:04:37;;;;;;;28.77;14.43;;;;;;;5.74;100.00;98250.78;1601742;88;21081;-76
2023/01/03 14:11:52;;;;;;;29.83;14.37;;;;;;;5.65;100.00;98233.45;1647044;83;20987;-75
2023/01/03 14:14:22;;;;;;;29.03;14.63;;;;;;;5.63;100.00;98224.77;1724914;83;21003;-76
2023/01/03 14:17:17;;;;;;;31.33;14.13;;;;;;;5.61;100.00;98228.15;1705897;82;21042;-76
2023/01/03 14:19:52;;;;;;;28.93;14.50;;;;;;;5.60;100.00;98231.83;1701258;83;21034;-78
2023/01/03 14:22:21;;;;;;;30.43;13.57;;;;;;;5.59;100.00;98242.22;1701127;83;20974;-77
2023/01/03 14:28:58;;;;;;;29.83;13.87;;;;;;;5.59;100.00;98232.02;1706340;83;20975;-78
2023/01/03 14:32:22;;;;;;;28.17;12.53;;;;;;;5.54;100.00;98204.92;1719275;83;21006;-80
2023/01/03 14:35:14;;;;;;;30.27;14.17;;;;;;;5.53;100.00;98200.59;1647262;86;21049;-78
2023/01/03 14:37:45;;;;;;;28.97;13.63;;;;;;;5.50;100.00;98202.59;1638161;86;21045;-77
2023/01/03 14:40:18;;;;;;;31.40;14.27;;;;;;;5.49;100.00;98196.92;1654644;86;21448;-78
2023/01/03 14:42:45;;;;;;;24.50;11.57;;;;;;;5.47;100.00;98204.33;1657380;86;21086;-78
2023/01/03 14:45:18;;;;;;;26.43;11.33;;;;;;;5.44;100.00;98207.36;1657284;86;21034;-77
2023/01/03 14:47:45;;;;;;;26.27;12.27;;;;;;;5.43;100.00;98204.34;1663572;86;21065;-78
2023/01/03 14:50:27;;;;;;;25.10;12.07;;;;;;;5.38;100.00;98210.76;1653087;86;21498;-77
2023/01/03 14:52:58;;;;;;;24.02;12.07;;;;;;;5.32;100.00;98210.98;1665145;86;21531;-77
2023/01/03 14:55:29;;;;;;;24.73;12.13;;;;;;;5.32;100.00;98201.61;1732607;82;21592;-79
2023/01/03 14:57:57;;;;;;;24.32;12.00;;;;;;;5.31;100.00;98200.44;1735521;83;21023;-74
2023/01/03 15:04:24;;;;;;;24.40;11.27;;;;;;;5.29;100.00;98200.66;1719904;81;21100;-73
2023/01/03 15:20:55;;;;;;;31.57;14.00;;;;;;;5.46;100.00;98543.10;1796831;78;27582;-71